createdAt,value
2017-11-15T00:01:07.220Z,16.00
2017-11-15T00:03:34.730Z,16.00
2017-11-15T00:06:02.218Z,16.00
2017-11-15T00:08:29.704Z,16.00
2017-11-15T00:10:57.948Z,16.00
2017-11-15T00:13:25.528Z,16.00
2017-11-15T00:15:53.870Z,16.00
2017-11-15T00:18:21.425Z,15.90
2017-11-15T00:20:48.887Z,16.00
2017-11-15T00:23:16.362Z,16.00
2017-11-15T00:25:43.895Z,16.00
2017-11-15T00:28:11.360Z,16.00
2017-11-15T00:30:38.831Z,16.00
2017-11-15T00:33:06.369Z,16.00
2017-11-15T00:35:33.843Z,16.00
2017-11-15T00:38:01.338Z,16.00
2017-11-15T00:40:28.823Z,16.00
2017-11-15T00:42:56.410Z,16.00
2017-11-15T00:45:24.902Z,16.00
2017-11-15T00:47:52.528Z,16.00
2017-11-15T00:50:23.464Z,16.00
2017-11-15T00:52:51.505Z,16.00
2017-11-15T00:55:19.283Z,16.00
2017-11-15T00:57:46.842Z,16.00
2017-11-15T01:00:14.372Z,16.00
2017-11-15T01:02:42.618Z,16.00
2017-11-15T01:05:10.124Z,15.90
2017-11-15T01:07:37.874Z,15.90
2017-11-15T01:10:06.116Z,15.90
2017-11-15T01:12:33.770Z,16.00
2017-11-15T01:15:01.321Z,15.90
2017-11-15T01:17:28.813Z,15.90
2017-11-15T01:19:56.287Z,15.90
2017-11-15T01:22:23.791Z,15.90
2017-11-15T01:24:51.328Z,15.90
2017-11-15T01:27:19.000Z,16.00
2017-11-15T01:29:46.534Z,15.90
2017-11-15T01:32:14.012Z,15.90
2017-11-15T01:34:41.507Z,15.90
2017-11-15T01:37:09.004Z,15.90
2017-11-15T01:39:36.481Z,16.00
2017-11-15T01:42:04.171Z,16.00
2017-11-15T01:44:32.047Z,16.00
2017-11-15T01:46:59.680Z,16.00
2017-11-15T01:49:27.162Z,16.00
2017-11-15T01:51:54.626Z,16.00
2017-11-15T01:54:22.115Z,16.00
2017-11-15T01:56:49.591Z,16.00
2017-11-15T01:59:17.283Z,16.00
2017-11-15T02:01:44.860Z,16.00
2017-11-15T02:04:12.333Z,16.00
2017-11-15T02:06:40.592Z,15.90
2017-11-15T02:09:08.063Z,15.90
2017-11-15T02:11:36.318Z,15.90
2017-11-15T02:14:03.821Z,15.90
2017-11-15T02:16:31.308Z,15.90
2017-11-15T02:18:58.885Z,15.90
2017-11-15T02:21:26.457Z,15.90
2017-11-15T02:23:54.810Z,15.90
2017-11-15T02:26:22.272Z,15.90
2017-11-15T02:28:49.755Z,15.90
2017-11-15T02:31:17.227Z,15.90
2017-11-15T02:33:44.919Z,15.90
2017-11-15T02:36:12.602Z,15.90
2017-11-15T02:38:40.309Z,15.90
2017-11-15T02:41:07.853Z,15.90
2017-11-15T02:43:36.107Z,15.90
2017-11-15T02:46:03.598Z,15.90
2017-11-15T02:48:31.860Z,16.00
2017-11-15T02:50:59.343Z,15.90
2017-11-15T02:53:27.656Z,16.00
2017-11-15T02:55:55.156Z,16.00
2017-11-15T02:58:23.584Z,16.00
2017-11-15T03:00:51.155Z,15.90
2017-11-15T03:03:18.616Z,16.00
2017-11-15T03:05:46.091Z,16.00
2017-11-15T03:08:13.583Z,16.00
2017-11-15T03:10:41.142Z,15.90
2017-11-15T03:13:08.731Z,16.00
2017-11-15T03:15:36.291Z,15.90
2017-11-15T03:18:03.767Z,15.90
2017-11-15T03:20:31.262Z,15.90
2017-11-15T03:22:59.521Z,15.90
2017-11-15T03:25:27.012Z,15.90
2017-11-15T03:27:54.561Z,15.90
2017-11-15T03:30:22.345Z,15.90
2017-11-15T03:32:49.880Z,15.90
2017-11-15T03:35:17.376Z,15.90
2017-11-15T03:37:44.860Z,15.90
2017-11-15T03:40:12.377Z,15.90
2017-11-15T03:42:40.031Z,15.90
2017-11-15T03:45:07.755Z,15.90
2017-11-15T03:47:35.287Z,15.90
2017-11-15T03:50:02.759Z,15.90
2017-11-15T03:52:30.230Z,15.90
2017-11-15T03:54:58.479Z,15.90
2017-11-15T03:57:26.032Z,15.90
2017-11-15T03:59:53.540Z,16.00
2017-11-15T04:02:21.128Z,15.90
2017-11-15T04:04:48.607Z,16.00
2017-11-15T04:07:16.092Z,15.90
2017-11-15T04:09:43.562Z,16.00
2017-11-15T04:12:11.826Z,15.90
2017-11-15T04:14:39.484Z,15.90
2017-11-15T04:17:08.499Z,15.90
2017-11-15T04:19:36.667Z,15.90
2017-11-15T04:22:05.036Z,15.90
2017-11-15T04:24:32.922Z,15.90
2017-11-15T04:27:01.433Z,15.90
2017-11-15T04:29:28.985Z,15.90
2017-11-15T04:31:56.458Z,15.90
2017-11-15T04:34:23.951Z,15.90
2017-11-15T04:36:52.206Z,15.90
2017-11-15T04:39:19.687Z,15.90
2017-11-15T04:41:48.003Z,15.90
2017-11-15T04:44:15.532Z,15.90
2017-11-15T04:46:43.917Z,15.90
2017-11-15T04:49:11.458Z,15.90
2017-11-15T04:51:38.920Z,15.90
2017-11-15T04:54:07.178Z,15.90
2017-11-15T04:56:34.651Z,15.90
2017-11-15T04:59:02.908Z,15.90
2017-11-15T05:01:30.396Z,15.90
2017-11-15T05:03:57.922Z,15.90
2017-11-15T05:06:26.456Z,16.00
2017-11-15T05:08:54.077Z,16.00
2017-11-15T05:11:21.624Z,15.90
2017-11-15T05:13:49.099Z,15.90
2017-11-15T05:16:17.351Z,15.90
2017-11-15T05:18:44.826Z,15.90
2017-11-15T05:21:13.087Z,15.90
2017-11-15T05:23:41.296Z,15.90
2017-11-15T05:26:09.132Z,15.90
2017-11-15T05:28:36.802Z,16.00
2017-11-15T05:31:05.219Z,16.00
2017-11-15T05:33:32.745Z,16.00
2017-11-15T05:36:00.987Z,15.70
2017-11-15T05:38:28.473Z,15.70
2017-11-15T05:40:56.731Z,15.40
2017-11-15T05:43:24.214Z,15.40
2017-11-15T05:45:52.503Z,15.60
2017-11-15T05:48:20.085Z,15.60
2017-11-15T05:50:47.635Z,15.70
2017-11-15T05:53:15.105Z,15.70
2017-11-15T05:55:42.605Z,15.70
2017-11-15T05:58:10.083Z,15.80
2017-11-15T06:00:38.360Z,15.80
2017-11-15T06:03:06.654Z,15.80
2017-11-15T06:05:34.267Z,15.80
2017-11-15T06:08:01.819Z,15.80
2017-11-15T06:10:29.317Z,15.80
2017-11-15T06:12:57.634Z,15.80
2017-11-15T06:15:25.137Z,15.80
2017-11-15T06:17:53.423Z,15.80
2017-11-15T06:20:21.596Z,15.80
2017-11-15T06:22:49.990Z,15.80
2017-11-15T06:25:17.616Z,15.80
2017-11-15T06:27:45.252Z,15.80
2017-11-15T06:30:12.778Z,15.80
2017-11-15T06:32:40.255Z,15.80
2017-11-15T06:35:07.808Z,15.80
2017-11-15T06:37:35.234Z,15.80
2017-11-15T06:40:02.799Z,15.80
2017-11-15T06:42:30.303Z,15.80
2017-11-15T06:44:57.881Z,15.80
2017-11-15T06:47:25.390Z,15.90
2017-11-15T06:49:52.860Z,15.90
2017-11-15T06:52:20.351Z,16.00
2017-11-15T06:54:48.620Z,16.00
2017-11-15T06:57:16.160Z,16.00
2017-11-15T06:59:43.771Z,16.00
2017-11-15T07:02:11.352Z,16.10
2017-11-15T07:04:38.833Z,16.10
2017-11-15T07:07:06.311Z,16.10
2017-11-15T07:09:34.575Z,16.00
2017-11-15T07:12:02.065Z,16.00
2017-11-15T07:14:30.519Z,16.00
2017-11-15T07:16:58.173Z,15.90
2017-11-15T07:19:26.013Z,16.00
2017-11-15T07:21:53.494Z,16.00
2017-11-15T07:24:21.028Z,16.00
2017-11-15T07:26:48.524Z,16.00
2017-11-15T07:29:16.784Z,16.10
2017-11-15T07:31:44.299Z,16.00
2017-11-15T07:34:11.911Z,16.10
2017-11-15T07:36:39.503Z,16.10
2017-11-15T07:39:07.766Z,16.10
2017-11-15T07:41:36.013Z,15.90
2017-11-15T07:44:03.528Z,15.90
2017-11-15T07:46:31.005Z,15.80
2017-11-15T07:48:58.615Z,15.90
2017-11-15T07:51:26.882Z,15.90
2017-11-15T07:53:55.274Z,15.90
2017-11-15T07:56:23.681Z,15.90
2017-11-15T07:58:51.223Z,15.90
2017-11-15T08:01:18.705Z,15.90
2017-11-15T08:03:46.198Z,15.90
2017-11-15T08:06:13.692Z,15.80
2017-11-15T08:08:51.988Z,15.80
2017-11-15T08:11:20.245Z,15.70
2017-11-15T08:13:47.724Z,15.70
2017-11-15T08:16:15.297Z,15.80
2017-11-15T08:18:42.874Z,15.70
2017-11-15T08:21:10.404Z,15.80
2017-11-15T08:23:37.917Z,15.80
2017-11-15T08:26:05.413Z,15.80
2017-11-15T08:28:33.655Z,15.80
2017-11-15T08:31:01.148Z,15.80
2017-11-15T08:33:29.399Z,15.80
2017-11-15T08:35:57.468Z,15.80
2017-11-15T08:38:25.156Z,15.80
2017-11-15T08:40:52.852Z,15.80
2017-11-15T08:43:20.344Z,15.80
2017-11-15T08:45:47.815Z,15.80
2017-11-15T08:48:17.932Z,15.80
2017-11-15T08:50:45.415Z,15.80
2017-11-15T08:53:12.885Z,15.80
2017-11-15T08:55:40.372Z,15.80
2017-11-15T08:58:07.859Z,15.80
2017-11-15T09:00:36.271Z,15.80
2017-11-15T09:03:03.792Z,15.80
2017-11-15T09:05:31.289Z,15.80
2017-11-15T09:07:58.788Z,15.80
2017-11-15T09:10:26.256Z,15.80
2017-11-15T09:12:53.753Z,15.80
2017-11-15T09:15:21.248Z,15.80
2017-11-15T09:17:48.784Z,15.80
2017-11-15T09:20:16.259Z,15.80
2017-11-15T09:22:43.756Z,15.80
2017-11-15T09:25:11.236Z,15.80
2017-11-15T09:27:38.778Z,15.80
2017-11-15T09:30:07.132Z,15.80
2017-11-15T09:32:35.655Z,15.80
2017-11-15T09:35:03.327Z,15.80
2017-11-15T09:37:30.841Z,15.80
2017-11-15T09:39:58.328Z,15.80
2017-11-15T09:42:25.812Z,15.80
2017-11-15T09:44:53.307Z,15.80
2017-11-15T09:47:20.836Z,15.80
2017-11-15T09:49:48.555Z,15.80
2017-11-15T09:52:17.088Z,15.80
2017-11-15T09:54:44.582Z,15.80
2017-11-15T09:57:12.064Z,15.80
2017-11-15T09:59:39.559Z,15.80
2017-11-15T10:02:07.061Z,15.80
2017-11-15T10:04:35.316Z,15.80
2017-11-15T10:07:03.595Z,15.80
2017-11-15T10:09:31.260Z,15.80
2017-11-15T10:11:59.636Z,15.80
2017-11-15T10:14:27.950Z,15.80
2017-11-15T10:17:01.135Z,15.80
2017-11-15T10:19:29.477Z,15.80
2017-11-15T10:21:56.964Z,15.80
2017-11-15T10:24:24.992Z,15.80
2017-11-15T10:26:52.664Z,15.80
2017-11-15T10:29:20.219Z,15.80
2017-11-15T10:31:47.703Z,15.80
2017-11-15T10:34:15.983Z,15.80
2017-11-15T10:36:43.464Z,15.80
2017-11-15T10:39:10.986Z,15.80
2017-11-15T10:41:39.408Z,15.80
2017-11-15T10:44:07.903Z,15.80
2017-11-15T10:46:35.674Z,15.80
2017-11-15T10:49:03.209Z,15.80
2017-11-15T10:51:30.688Z,15.80
2017-11-15T10:53:58.170Z,15.80
2017-11-15T10:56:26.436Z,15.80
2017-11-15T10:58:53.960Z,15.80
2017-11-15T11:01:21.549Z,15.80
2017-11-15T11:03:49.119Z,15.80
2017-11-15T11:06:16.633Z,15.80
2017-11-15T11:08:44.103Z,15.80
2017-11-15T11:11:11.591Z,15.80
2017-11-15T11:13:39.092Z,15.80
2017-11-15T11:16:06.728Z,15.80
2017-11-15T11:18:35.567Z,15.80
2017-11-15T11:21:03.126Z,15.80
2017-11-15T11:23:30.644Z,15.80
2017-11-15T11:25:58.146Z,15.80
2017-11-15T11:28:27.480Z,15.80
2017-11-15T11:30:55.763Z,15.80
2017-11-15T11:33:24.015Z,15.80
2017-11-15T11:35:52.701Z,15.80
2017-11-15T11:38:20.201Z,15.80
2017-11-15T11:40:48.451Z,15.80
2017-11-15T11:43:16.907Z,15.80
2017-11-15T11:45:44.688Z,15.80
2017-11-15T11:48:13.821Z,15.80
2017-11-15T11:50:41.653Z,15.80
2017-11-15T11:53:10.076Z,15.80
2017-11-15T11:55:37.659Z,15.80
2017-11-15T11:58:05.171Z,15.80
2017-11-15T12:00:32.648Z,15.80
2017-11-15T12:03:00.155Z,15.80
2017-11-15T12:05:27.695Z,15.80
2017-11-15T12:07:55.204Z,15.80
2017-11-15T12:10:22.713Z,15.80
2017-11-15T12:12:50.214Z,15.80
2017-11-15T12:15:17.716Z,15.80
2017-11-15T12:17:45.199Z,15.80
2017-11-15T12:20:12.743Z,15.80
2017-11-15T12:22:41.112Z,15.80
2017-11-15T12:25:08.646Z,15.80
2017-11-15T12:27:36.172Z,15.80
2017-11-15T12:30:04.410Z,15.80
2017-11-15T12:32:31.904Z,15.80
2017-11-15T12:35:00.168Z,15.80
2017-11-15T12:37:27.740Z,15.80
2017-11-15T12:39:56.271Z,15.80
2017-11-15T12:42:24.707Z,15.80
2017-11-15T12:44:52.513Z,15.80
2017-11-15T12:47:20.973Z,15.80
2017-11-15T12:49:48.583Z,15.80
2017-11-15T12:52:16.850Z,15.80
2017-11-15T12:54:44.333Z,15.80
2017-11-15T12:57:12.584Z,15.80
2017-11-15T12:59:40.080Z,15.80
2017-11-15T13:02:07.615Z,15.80
2017-11-15T13:04:35.909Z,15.80
2017-11-15T13:07:04.216Z,15.80
2017-11-15T13:09:31.776Z,15.80
2017-11-15T13:11:59.267Z,15.80
2017-11-15T13:14:26.755Z,15.80
2017-11-15T13:16:55.013Z,15.80
2017-11-15T13:19:22.491Z,15.80
2017-11-15T13:21:50.872Z,15.80
2017-11-15T13:24:18.470Z,15.80
2017-11-15T13:26:46.026Z,15.80
2017-11-15T13:29:13.503Z,15.80
2017-11-15T13:31:41.748Z,15.80
2017-11-15T13:34:09.243Z,15.80
2017-11-15T13:36:36.732Z,15.80
2017-11-15T13:39:04.686Z,15.80
2017-11-15T13:41:33.357Z,15.80
2017-11-15T13:44:01.531Z,15.80
2017-11-15T13:46:29.110Z,15.80
2017-11-15T13:48:57.461Z,15.80
2017-11-15T13:51:25.751Z,15.80
2017-11-15T13:53:54.014Z,15.80
2017-11-15T13:56:21.498Z,15.80
2017-11-15T13:58:49.746Z,15.80
2017-11-15T14:01:17.227Z,15.80
2017-11-15T14:03:45.479Z,15.80
2017-11-15T14:06:12.975Z,15.80
2017-11-15T14:08:40.644Z,15.80
2017-11-15T14:11:08.105Z,15.80
2017-11-15T14:13:35.591Z,15.80
2017-11-15T14:16:03.079Z,15.80
2017-11-15T14:18:30.580Z,15.80
2017-11-15T14:20:58.067Z,15.80
2017-11-15T14:23:25.671Z,15.80
2017-11-15T14:25:53.261Z,15.80
2017-11-15T14:28:20.727Z,15.80
2017-11-15T14:30:48.216Z,15.80
2017-11-15T14:33:15.696Z,15.80
2017-11-15T14:35:44.714Z,15.80
2017-11-15T14:38:12.215Z,15.80
2017-11-15T14:40:39.842Z,15.80
2017-11-15T14:43:07.412Z,15.80
2017-11-15T14:45:35.716Z,15.80
2017-11-15T14:48:03.192Z,15.80
2017-11-15T14:50:31.435Z,15.80
2017-11-15T14:52:58.947Z,15.80
2017-11-15T14:55:26.464Z,15.80
2017-11-15T14:57:54.128Z,15.80
2017-11-15T15:00:21.619Z,15.80
2017-11-15T15:02:49.106Z,15.80
2017-11-15T15:05:16.597Z,15.80
2017-11-15T15:07:44.075Z,15.80
2017-11-15T15:10:12.344Z,15.80
2017-11-15T15:12:40.605Z,15.80
2017-11-15T15:15:08.123Z,15.80
2017-11-15T15:17:36.591Z,15.80
2017-11-15T15:20:04.136Z,15.80
2017-11-15T15:22:31.667Z,15.80
2017-11-15T15:24:59.171Z,15.80
2017-11-15T15:27:26.656Z,15.80
2017-11-15T15:29:54.160Z,15.80
2017-11-15T15:32:32.565Z,15.80
2017-11-15T15:35:00.813Z,15.80
2017-11-15T15:37:28.306Z,15.80
2017-11-15T15:39:55.807Z,15.80
2017-11-15T15:42:23.393Z,15.80
2017-11-15T15:44:50.911Z,15.80
2017-11-15T15:47:18.404Z,15.80
2017-11-15T15:49:45.880Z,15.80
2017-11-15T15:52:14.123Z,15.80
2017-11-15T15:54:41.695Z,15.80
2017-11-15T15:57:09.251Z,15.80
2017-11-15T15:59:37.881Z,15.80
2017-11-15T16:02:05.503Z,15.80
2017-11-15T16:04:32.990Z,15.80
2017-11-15T16:07:00.484Z,15.80
2017-11-15T16:09:27.980Z,15.80
2017-11-15T16:11:55.465Z,15.80
2017-11-15T16:14:23.584Z,15.80
2017-11-15T16:16:51.138Z,15.80
2017-11-15T16:19:19.542Z,15.80
2017-11-15T16:21:47.885Z,15.80
2017-11-15T16:24:15.353Z,15.80
2017-11-15T16:26:42.843Z,15.70
2017-11-15T16:29:11.095Z,15.80
2017-11-15T16:31:38.600Z,15.80
2017-11-15T16:34:06.100Z,15.80
2017-11-15T16:39:07.550Z,15.80
2017-11-15T16:41:35.030Z,15.80
2017-11-15T16:44:02.518Z,15.80
2017-11-15T16:46:30.786Z,15.80
2017-11-15T16:48:58.291Z,15.70
2017-11-15T16:51:25.831Z,15.80
2017-11-15T16:53:53.374Z,15.70
2017-11-15T16:56:21.789Z,15.70
2017-11-15T16:58:49.279Z,15.70
2017-11-15T17:01:16.828Z,15.70
2017-11-15T17:03:44.382Z,15.70
2017-11-15T17:06:11.959Z,15.80
2017-11-15T17:08:39.525Z,15.70
2017-11-15T17:11:07.066Z,15.70
2017-11-15T17:13:35.357Z,15.70
2017-11-15T17:16:02.844Z,15.70
2017-11-15T17:18:30.351Z,15.80
2017-11-15T17:20:57.840Z,15.70
2017-11-15T17:23:26.196Z,15.70
2017-11-15T17:25:53.855Z,15.70
2017-11-15T17:28:21.420Z,15.80
2017-11-15T17:30:48.906Z,15.70
2017-11-15T17:33:17.167Z,15.70
2017-11-15T17:35:44.724Z,15.70
2017-11-15T17:38:12.209Z,15.80
2017-11-15T17:40:39.705Z,15.80
2017-11-15T17:43:07.271Z,15.80
2017-11-15T17:45:34.861Z,15.80
2017-11-15T17:48:02.405Z,15.80
2017-11-15T17:50:29.955Z,15.80
2017-11-15T17:52:57.457Z,15.80
2017-11-15T17:55:25.267Z,15.80
2017-11-15T17:57:53.014Z,15.80
2017-11-15T18:00:20.839Z,15.80
2017-11-15T18:02:48.500Z,15.80
2017-11-15T18:05:16.123Z,15.80
2017-11-15T18:07:43.615Z,16.00
2017-11-15T18:10:11.869Z,16.20
2017-11-15T18:12:39.398Z,16.20
2017-11-15T18:15:07.755Z,16.10
2017-11-15T18:17:35.324Z,16.10
2017-11-15T18:20:02.863Z,16.00
2017-11-15T18:22:30.380Z,16.00
2017-11-15T18:24:57.860Z,15.90
2017-11-15T18:27:25.344Z,15.90
2017-11-15T18:29:52.898Z,15.90
2017-11-15T18:32:20.527Z,15.90
2017-11-15T18:34:48.956Z,15.90
2017-11-15T18:37:16.427Z,15.90
2017-11-15T18:39:43.900Z,15.80
2017-11-15T18:42:11.393Z,15.90
2017-11-15T18:44:38.892Z,15.90
2017-11-15T18:47:06.476Z,15.90
2017-11-15T18:49:34.231Z,16.00
2017-11-15T18:52:01.745Z,16.00
2017-11-15T18:54:29.242Z,16.00
2017-11-15T18:56:56.793Z,15.90
2017-11-15T18:59:25.059Z,15.90
2017-11-15T19:01:52.540Z,15.90
2017-11-15T19:04:20.052Z,16.00
2017-11-15T19:06:47.663Z,16.00
2017-11-15T19:09:16.065Z,16.00
2017-11-15T19:11:44.397Z,16.00
2017-11-15T19:14:11.879Z,16.00
2017-11-15T19:16:39.435Z,16.00
2017-11-15T19:19:06.952Z,16.00
2017-11-15T19:21:34.557Z,16.00
2017-11-15T19:24:02.124Z,16.00
2017-11-15T19:26:30.483Z,16.00
2017-11-15T19:28:58.046Z,16.00
2017-11-15T19:31:25.518Z,16.00
2017-11-15T19:33:53.789Z,16.00
2017-11-15T19:36:22.116Z,16.00
2017-11-15T19:38:49.618Z,15.90
2017-11-15T19:41:17.183Z,16.00
2017-11-15T19:43:45.558Z,16.00
2017-11-15T19:46:14.792Z,16.00
2017-11-15T19:48:42.625Z,16.00
2017-11-15T19:51:10.261Z,15.90
2017-11-15T19:53:37.873Z,15.90
2017-11-15T19:56:05.373Z,15.90
2017-11-15T19:58:32.865Z,15.90
2017-11-15T20:01:01.197Z,16.00
2017-11-15T20:03:28.688Z,15.90
2017-11-15T20:05:56.530Z,16.00
2017-11-15T20:08:24.018Z,16.00
2017-11-15T20:10:51.506Z,15.90
2017-11-15T20:13:19.399Z,15.90
2017-11-15T20:15:46.876Z,16.00
2017-11-15T20:18:14.414Z,16.00
2017-11-15T20:20:41.992Z,16.00
2017-11-15T20:23:09.553Z,16.00
2017-11-15T20:25:37.774Z,16.00
2017-11-15T20:28:06.031Z,16.00
2017-11-15T20:30:34.383Z,16.00
2017-11-15T20:33:01.971Z,15.90
2017-11-15T20:35:30.320Z,16.00
2017-11-15T20:37:57.811Z,16.00
2017-11-15T20:40:28.668Z,16.00
2017-11-15T20:42:56.153Z,16.00
2017-11-15T20:45:23.842Z,16.00
2017-11-15T20:47:51.440Z,16.00
2017-11-15T20:50:19.172Z,16.00
2017-11-15T20:52:47.560Z,16.00
2017-11-15T20:55:15.967Z,16.00
2017-11-15T20:57:43.500Z,16.00
2017-11-15T21:00:11.771Z,16.00
2017-11-15T21:02:40.025Z,16.00
2017-11-15T21:05:07.508Z,16.00
2017-11-15T21:07:35.854Z,16.00
2017-11-15T21:10:03.696Z,16.00
2017-11-15T21:12:31.499Z,16.00
2017-11-15T21:14:59.151Z,16.00
2017-11-15T21:17:26.690Z,16.00
2017-11-15T21:19:54.279Z,16.00
2017-11-15T21:22:23.582Z,16.00
2017-11-15T21:24:51.873Z,16.00
2017-11-15T21:27:20.114Z,16.00
2017-11-15T21:29:47.701Z,16.00
2017-11-15T21:32:15.957Z,16.00
2017-11-15T21:34:53.522Z,16.00
2017-11-15T21:37:21.043Z,16.00
2017-11-15T21:39:48.568Z,16.00
2017-11-15T21:42:16.200Z,16.00
2017-11-15T21:44:43.675Z,16.00
2017-11-15T21:47:11.158Z,16.10
2017-11-15T21:49:39.398Z,16.10
2017-11-15T21:52:07.819Z,16.00
2017-11-15T21:54:36.051Z,16.10
2017-11-15T21:57:03.543Z,16.00
2017-11-15T21:59:31.812Z,16.10
2017-11-15T22:02:00.059Z,16.00
2017-11-15T22:04:27.617Z,16.00
2017-11-15T22:06:55.168Z,16.10
2017-11-15T22:09:22.639Z,16.10
2017-11-15T22:11:50.125Z,16.10
2017-11-15T22:14:18.381Z,16.10
2017-11-15T22:16:45.853Z,16.10
2017-11-15T22:19:14.124Z,16.10
2017-11-15T22:21:41.710Z,16.10
2017-11-15T22:24:09.330Z,16.10
2017-11-15T22:26:36.955Z,16.10
2017-11-15T22:29:04.431Z,16.10
2017-11-15T22:31:31.908Z,16.10
2017-11-15T22:33:59.426Z,16.10
2017-11-15T22:36:26.923Z,16.10
2017-11-15T22:38:54.626Z,16.10
2017-11-15T22:41:22.187Z,16.10
2017-11-15T22:43:49.658Z,16.10
2017-11-15T22:46:17.161Z,16.10
2017-11-15T22:48:45.416Z,16.10
2017-11-15T22:51:12.916Z,16.10
2017-11-15T22:53:41.183Z,16.10
2017-11-15T22:56:09.492Z,16.10
2017-11-15T22:58:37.101Z,16.10
2017-11-15T23:01:04.640Z,16.10
2017-11-15T23:03:32.161Z,16.10
2017-11-15T23:05:59.626Z,16.10
2017-11-15T23:08:27.123Z,16.10
2017-11-15T23:10:54.749Z,16.10
2017-11-15T23:13:23.385Z,16.10
2017-11-15T23:16:02.425Z,16.10
2017-11-15T23:18:30.666Z,16.10
2017-11-15T23:20:58.156Z,16.10
2017-11-15T23:23:26.410Z,16.10
2017-11-15T23:25:53.900Z,16.10
2017-11-15T23:28:21.489Z,16.00
2017-11-15T23:30:49.052Z,16.10
2017-11-15T23:33:16.513Z,16.10
2017-11-15T23:35:44.006Z,16.10
2017-11-15T23:38:11.488Z,16.10
2017-11-15T23:40:39.330Z,16.10
2017-11-15T23:43:06.959Z,16.10
2017-11-15T23:45:34.496Z,16.10
2017-11-15T23:48:01.966Z,16.10
2017-11-15T23:50:29.447Z,16.10
2017-11-15T23:52:56.941Z,16.10
2017-11-15T23:55:34.461Z,16.10
2017-11-15T23:58:01.946Z,16.10
